In Rescue
 
Open Full Screen Window  High Contrast Mode
Wind Gusting 00 knots
09
March 19, 2019 7:36 PM EDT
Weather Information
Wind Direction
  250 °
Wind Speed
  09 kt (10 mph)
Wind Gust
  00 kt (0 mph)
Altimeter
30.28 in
Visibility
10 SM
Temperature
04° C
39° F
Dewpoint
-09° C
16° F
Humidity
39%
1hr Rain Fall
00.00 in.
24hr Rain Fall
00.00 in.
Sky Condition
Clear
VFR

METAR KY70 192336Z AUTO 25009KT 10SM CLR 04/M09 A3028 RMK AO2 T00431092

FAA Disclaimer: The data displayed is for advisory purposes only and is not to be used for flight planning or operations.